Impacts METAR Board
IDs:

KDFW - Dallas-Ft Worth Intl, TX, US

Updated at: 1300 UTC 13 Dec 2018
Potential Impact None Slight Moderate High
Time 13/01Z 13/02Z 13/03Z 13/04Z 13/05Z 13/06Z 13/07Z 13/08Z 13/09Z 13/10Z 13/11Z 13/12Z 13/13Z
Temp60 60 60 61 60 61 60 59 60 61 61 60 61
Dewpt55 55 56 56 56 56 57 57 58 59 59 58 59
Altim29.80 29.80 29.79 29.77 29.75 29.73 29.76 29.74 29.72 29.67 29.65 29.64 29.66
VIS10 10 10 10 10 10 8 10 10 8 9 9 8
CIG180 180 110 110 120 120 12 16 9 7 11 100 25
CoverOVCOVCOVCOVCOVCOVCOVCOVCOVCOVCBKNBKNBKN
FltCatVFRVFRVFRVFRVFRVFRMVFRMVFRIFRIFRMVFRVFRMVFR
WX-------------RA---RA------VCTS
WDir180180180180180180250190180170180180170
WSpd13 12 13 15 18 14 10 5 11 10 14 11 8
WGst-- -- 20 23 -- 24 -- -- -- -- -- -- --
Raw hourly METARs
KDFW 130053Z 18013KT 10SM FEW028 BKN180 OVC240 16/13 A2980 RMK AO2 SLP089 T01560128
KDFW 130153Z 18012KT 10SM SCT160 BKN180 OVC240 16/13 A2980 RMK AO2 SLP087 T01560128
KDFW 130253Z 18013G20KT 10SM FEW014 BKN110 BKN180 OVC240 16/13 A2979 RMK AO2 SLP085 T01560133 56007
KDFW 130353Z 18015G23KT 10SM FEW014 BKN110 BKN160 OVC240 16/13 A2977 RMK AO2 SLP078 T01610133
KDFW 130453Z 18018KT 10SM FEW014 SCT100 BKN120 OVC140 16/13 A2975 RMK AO2 PK WND 18027/0412 SLP072 T01560133
KDFW 130553Z 18014G24KT 10SM FEW013 SCT095 BKN120 OVC250 16/13 A2973 RMK AO2 SLP065 T01610133 10161 20156 401720083 58019
KDFW 130653Z 25010KT 8SM -RA BKN012 OVC110 16/14 A2976 RMK AO2 RAB42 SLP074 P0001 T01560139
KDFW 130753Z 19005KT 10SM BKN016 BKN075 OVC090 15/14 A2974 RMK AO2 RAE50 SLP066 P0003 T01500139
KDFW 130853Z 18011KT 10SM -RA OVC009 16/14 A2972 RMK AO2 RAB50 SLP057 P0000 60004 T01560144 58006
KDFW 130953Z 17010KT 8SM BKN007 OVC010 16/15 A2967 RMK AO2 RAE00 SLP043 P0000 T01610150
KDFW 131053Z 18014KT 9SM FEW008 BKN011 BKN022 BKN130 16/15 A2965 RMK AO2 SLP034 T01610150
KDFW 131153Z 18011KT 9SM FEW009 SCT014 BKN100 16/14 A2964 RMK AO2 SLP033 60004 70004 T01560144 10161 20150 56023
KDFW 131301Z 17008KT 8SM VCTS FEW009 BKN025 BKN100 BKN150 16/15 A2966 RMK AO2 T01610150



Page loaded:  13:37 UTC  |   05:37 AM Pacific  |   06:37 AM Mountain  |   07:37 AM Central  |   08:37 AM Eastern

 

ADVISORIES

FORECASTS

FORECASTS

OBSERVATIONS

USER TOOLS

ABOUT US